createdAt,value
2018-04-18T00:00:42.201Z,22.07
2018-04-18T00:03:10.090Z,23.77
2018-04-18T00:05:37.638Z,18.83
2018-04-18T00:08:06.004Z,21.93
2018-04-18T00:10:33.672Z,25.97
2018-04-18T00:13:01.222Z,18.77
2018-04-18T00:15:28.814Z,18.53
2018-04-18T00:17:56.358Z,16.90
2018-04-18T00:20:24.175Z,23.87
2018-04-18T00:22:51.897Z,18.67
2018-04-18T00:25:19.441Z,19.20
2018-04-18T00:27:46.989Z,19.50
2018-04-18T00:30:14.578Z,19.57
2018-04-18T00:32:43.433Z,19.63
2018-04-18T00:35:11.001Z,20.20
2018-04-18T00:37:38.967Z,18.47
2018-04-18T00:40:06.836Z,23.47
2018-04-18T00:42:34.801Z,20.20
2018-04-18T00:45:02.402Z,24.83
2018-04-18T00:47:30.360Z,26.73
2018-04-18T00:49:58.201Z,23.70
2018-04-18T00:52:25.757Z,22.30
2018-04-18T00:54:53.661Z,21.37
2018-04-18T00:57:21.811Z,21.07
2018-04-18T00:59:49.574Z,19.03
2018-04-18T01:02:17.128Z,15.07
2018-04-18T01:04:44.784Z,24.57
2018-04-18T01:07:12.317Z,18.17
2018-04-18T01:09:39.878Z,22.23
2018-04-18T01:12:07.517Z,17.67
2018-04-18T01:14:35.906Z,20.77
2018-04-18T01:17:03.736Z,23.07
2018-04-18T01:19:31.354Z,37.80
2018-04-18T01:21:58.937Z,25.53
2018-04-18T01:24:26.523Z,17.97
2018-04-18T01:26:54.368Z,19.27
2018-04-18T01:29:21.985Z,16.77
2018-04-18T01:31:49.536Z,16.40
2018-04-18T01:34:17.608Z,18.70
2018-04-18T01:36:45.242Z,15.00
2018-04-18T01:39:12.783Z,21.03
2018-04-18T01:41:40.334Z,15.47
2018-04-18T01:44:08.121Z,19.17
2018-04-18T01:46:36.176Z,16.13
2018-04-18T01:49:15.722Z,19.37
2018-04-18T01:51:43.265Z,17.70
2018-04-18T01:54:10.813Z,19.60
2018-04-18T01:56:38.780Z,15.83
2018-04-18T01:59:06.371Z,20.20
2018-04-18T02:01:34.685Z,19.70
2018-04-18T02:04:02.225Z,16.27
2018-04-18T02:06:29.817Z,17.80
2018-04-18T02:08:57.888Z,19.20
2018-04-18T02:14:24.615Z,17.83
2018-04-18T02:16:52.162Z,21.03
2018-04-18T02:19:19.709Z,17.90
2018-04-18T02:21:47.297Z,19.67
2018-04-18T02:24:14.905Z,22.73
2018-04-18T02:26:42.449Z,16.20
2018-04-18T02:29:10.014Z,17.00
2018-04-18T02:31:37.714Z,22.67
2018-04-18T02:34:05.498Z,16.97
2018-04-18T02:36:33.070Z,21.00
2018-04-18T02:39:00.704Z,23.20
2018-04-18T02:41:28.329Z,20.23
2018-04-18T02:43:55.890Z,22.17
2018-04-18T02:49:22.022Z,21.80
2018-04-18T02:51:49.636Z,18.90
2018-04-18T02:54:17.190Z,26.97
2018-04-18T02:56:45.678Z,26.53
2018-04-18T02:59:13.840Z,21.93
2018-04-18T03:01:41.430Z,25.77
2018-04-18T03:04:09.003Z,21.60
2018-04-18T03:06:36.590Z,19.53
2018-04-18T03:09:04.184Z,22.50
2018-04-18T03:11:32.989Z,20.77
2018-04-18T03:14:00.537Z,23.80
2018-04-18T03:16:28.089Z,22.20
2018-04-18T03:18:55.689Z,28.77
2018-04-18T03:21:23.719Z,29.80
2018-04-18T03:23:51.454Z,26.43
2018-04-18T03:26:19.026Z,23.97
2018-04-18T03:28:46.577Z,27.00
2018-04-18T03:31:14.185Z,28.07
2018-04-18T03:33:42.548Z,23.73
2018-04-18T03:36:10.143Z,23.40
2018-04-18T03:38:37.746Z,29.40
2018-04-18T03:43:55.893Z,25.30
2018-04-18T03:46:24.098Z,27.67
2018-04-18T03:48:52.672Z,26.90
2018-04-18T03:51:20.330Z,31.63
2018-04-18T03:53:49.360Z,24.43
2018-04-18T03:56:16.912Z,24.37
2018-04-18T03:58:44.522Z,22.87
2018-04-18T04:01:12.075Z,24.17
2018-04-18T04:03:40.292Z,28.60
2018-04-18T04:06:08.192Z,24.57
2018-04-18T04:08:35.742Z,23.53
2018-04-18T04:11:03.345Z,24.13
2018-04-18T04:13:30.960Z,23.50
2018-04-18T04:15:58.538Z,29.40
2018-04-18T04:18:39.166Z,26.63
2018-04-18T04:21:18.667Z,25.40
2018-04-18T04:23:57.874Z,27.33
2018-04-18T04:26:26.849Z,27.30
2018-04-18T04:28:54.442Z,24.30
2018-04-18T04:31:22.046Z,24.20
2018-04-18T04:33:49.622Z,24.20
2018-04-18T04:36:17.233Z,29.43
2018-04-18T04:38:45.113Z,27.43
2018-04-18T04:41:12.729Z,33.77
2018-04-18T04:43:40.287Z,25.80
2018-04-18T04:46:08.385Z,24.00
2018-04-18T04:48:36.168Z,27.33
2018-04-18T04:51:03.786Z,28.43
2018-04-18T04:53:32.346Z,27.93
2018-04-18T04:55:59.893Z,31.90
2018-04-18T04:58:27.975Z,37.97
2018-04-18T05:00:56.736Z,48.93
2018-04-18T05:03:24.958Z,50.60
2018-04-18T05:05:52.587Z,71.10
2018-04-18T05:08:21.157Z,53.37
2018-04-18T05:10:51.453Z,54.23
2018-04-18T05:13:19.323Z,170.80
2018-04-18T05:15:46.956Z,163.37
2018-04-18T05:18:15.926Z,147.40
2018-04-18T05:20:43.490Z,104.47
2018-04-18T05:23:12.066Z,79.83
2018-04-18T05:25:39.678Z,81.73
2018-04-18T05:28:07.242Z,59.03
2018-04-18T05:30:34.876Z,54.23
2018-04-18T05:42:19.598Z,37.90
2018-04-18T05:44:47.162Z,42.23
2018-04-18T05:47:15.015Z,42.03
2018-04-18T05:49:42.607Z,33.10
2018-04-18T05:52:10.362Z,53.23
2018-04-18T05:54:38.021Z,29.93
2018-04-18T05:57:05.717Z,29.03
2018-04-18T05:59:33.273Z,36.33
2018-04-18T06:02:00.876Z,29.33
2018-04-18T06:04:28.740Z,40.23
2018-04-18T06:06:56.385Z,29.73
2018-04-18T06:09:24.308Z,35.00
2018-04-18T06:11:52.127Z,29.40
2018-04-18T06:14:19.726Z,45.43
2018-04-18T06:16:47.435Z,37.90
2018-04-18T06:19:15.069Z,46.93
2018-04-18T06:21:42.630Z,47.00
2018-04-18T06:24:10.191Z,47.35
2018-04-18T06:26:37.790Z,33.60
2018-04-18T06:29:05.520Z,24.73
2018-04-18T06:31:33.068Z,27.73
2018-04-18T06:34:00.657Z,26.60
2018-04-18T06:36:29.670Z,35.20
2018-04-18T06:38:57.294Z,47.37
2018-04-18T06:41:24.860Z,19.53
2018-04-18T06:43:53.286Z,43.40
2018-04-18T06:46:20.896Z,26.03
2018-04-18T06:48:48.510Z,37.23
2018-04-18T06:51:16.907Z,33.37
2018-04-18T06:53:44.634Z,38.73
2018-04-18T06:56:12.298Z,39.90
2018-04-18T06:58:39.959Z,40.23
2018-04-18T07:01:07.507Z,96.15
2018-04-18T07:03:35.102Z,70.30
2018-04-18T07:06:03.682Z,48.37
2018-04-18T07:08:31.234Z,236.97
2018-04-18T07:10:59.034Z,139.70
2018-04-18T07:13:26.781Z,82.70
2018-04-18T07:15:55.190Z,95.10
2018-04-18T07:18:22.803Z,45.27
2018-04-18T07:20:50.483Z,41.23
2018-04-18T07:23:18.078Z,53.13
2018-04-18T07:25:45.628Z,42.93
2018-04-18T07:28:13.171Z,38.33
2018-04-18T07:30:40.778Z,74.07
2018-04-18T07:33:09.485Z,102.53
2018-04-18T07:35:37.098Z,71.23
2018-04-18T07:38:04.650Z,80.70
2018-04-18T07:40:32.262Z,65.80
2018-04-18T07:42:59.867Z,68.33
2018-04-18T07:45:28.003Z,82.27
2018-04-18T07:47:55.762Z,180.40
2018-04-18T07:50:23.325Z,146.40
2018-04-18T07:52:50.974Z,133.73
2018-04-18T07:55:19.669Z,130.63
2018-04-18T07:57:47.763Z,111.40
2018-04-18T08:00:15.503Z,150.17
2018-04-18T08:02:43.231Z,188.60
2018-04-18T08:05:11.348Z,157.60
2018-04-18T08:07:39.486Z,131.83
2018-04-18T08:10:07.072Z,156.07
2018-04-18T08:12:34.989Z,106.37
2018-04-18T08:15:02.559Z,144.73
2018-04-18T08:17:30.114Z,78.77
2018-04-18T08:19:58.563Z,59.90
2018-04-18T08:22:26.306Z,119.67
2018-04-18T08:24:55.319Z,79.07
2018-04-18T08:27:22.924Z,102.90
2018-04-18T08:29:50.828Z,121.50
2018-04-18T08:32:18.451Z,111.37
2018-04-18T08:34:46.002Z,62.17
2018-04-18T08:37:13.612Z,95.80
2018-04-18T08:39:41.775Z,71.53
2018-04-18T08:42:09.473Z,81.60
2018-04-18T08:44:37.094Z,80.73
2018-04-18T08:47:04.651Z,96.20
2018-04-18T08:49:32.286Z,69.20
2018-04-18T08:52:00.842Z,55.63
2018-04-18T08:54:28.781Z,78.17
2018-04-18T08:56:56.416Z,50.20
2018-04-18T08:59:24.067Z,56.43
2018-04-18T09:01:52.633Z,93.77
2018-04-18T09:04:20.249Z,93.40
2018-04-18T09:06:47.858Z,109.80
2018-04-18T09:09:15.486Z,117.73
2018-04-18T09:11:43.039Z,85.07
2018-04-18T09:14:10.889Z,79.40
2018-04-18T09:16:39.354Z,81.13
2018-04-18T09:19:07.344Z,80.80
2018-04-18T09:21:35.125Z,46.77
2018-04-18T09:24:02.670Z,75.67
2018-04-18T09:26:30.289Z,52.17
2018-04-18T09:28:57.883Z,65.13
2018-04-18T09:31:25.605Z,68.97
2018-04-18T09:33:53.229Z,82.30
2018-04-18T09:36:20.782Z,67.77
2018-04-18T09:38:48.340Z,75.97
2018-04-18T09:41:15.959Z,87.10
2018-04-18T09:43:43.514Z,67.90
2018-04-18T09:46:11.181Z,81.60
2018-04-18T09:48:39.726Z,86.10
2018-04-18T09:51:07.279Z,78.63
2018-04-18T09:53:34.942Z,78.93
2018-04-18T09:56:02.505Z,77.03
2018-04-18T09:58:31.024Z,102.70
2018-04-18T10:00:59.591Z,97.47
2018-04-18T10:03:29.287Z,120.77
2018-04-18T10:05:56.881Z,90.90
2018-04-18T10:08:24.839Z,92.63
2018-04-18T10:10:52.656Z,104.17
2018-04-18T10:13:20.497Z,138.27
2018-04-18T10:15:48.099Z,117.57
2018-04-18T10:18:15.667Z,114.30
2018-04-18T10:20:44.582Z,94.80
2018-04-18T10:23:12.138Z,113.47
2018-04-18T10:25:40.557Z,105.33
2018-04-18T10:28:08.436Z,95.93
2018-04-18T10:30:36.391Z,73.67
2018-04-18T10:33:04.575Z,73.17
2018-04-18T10:35:32.178Z,84.22
2018-04-18T10:38:00.269Z,82.00
2018-04-18T10:40:28.175Z,78.67
2018-04-18T10:42:55.762Z,80.97
2018-04-18T10:45:24.118Z,85.77
2018-04-18T10:47:52.088Z,85.10
2018-04-18T10:50:20.623Z,89.77
2018-04-18T10:52:48.281Z,94.73
2018-04-18T10:55:15.925Z,83.13
2018-04-18T10:57:43.537Z,74.40
2018-04-18T11:00:11.083Z,72.47
2018-04-18T11:02:38.685Z,78.20
2018-04-18T11:05:07.060Z,84.80
2018-04-18T11:07:34.618Z,71.10
2018-04-18T11:10:02.299Z,68.23
2018-04-18T11:12:29.868Z,88.20
2018-04-18T11:14:57.442Z,69.53
2018-04-18T11:17:25.102Z,97.60
2018-04-18T11:19:52.658Z,82.03
2018-04-18T11:22:20.274Z,80.07
2018-04-18T11:24:48.707Z,83.40
2018-04-18T11:27:16.381Z,88.63
2018-04-18T11:29:44.009Z,95.40
2018-04-18T11:32:12.367Z,76.87
2018-04-18T11:34:39.918Z,89.67
2018-04-18T11:37:07.515Z,108.37
2018-04-18T11:39:35.134Z,68.43
2018-04-18T11:42:02.693Z,85.23
2018-04-18T11:44:30.346Z,91.40
2018-04-18T11:46:57.954Z,54.60
2018-04-18T11:49:25.530Z,87.30
2018-04-18T11:51:53.236Z,69.53
2018-04-18T11:54:20.794Z,85.80
2018-04-18T11:56:49.310Z,81.17
2018-04-18T11:59:17.913Z,59.90
2018-04-18T12:01:45.562Z,49.00
2018-04-18T12:04:13.155Z,67.50
2018-04-18T12:06:40.708Z,70.77
2018-04-18T12:09:08.370Z,55.47
2018-04-18T12:11:36.015Z,67.80
2018-04-18T12:14:03.683Z,67.63
2018-04-18T12:16:31.446Z,69.97
2018-04-18T12:18:59.082Z,71.20
2018-04-18T12:21:26.629Z,60.40
2018-04-18T12:23:54.983Z,68.53
2018-04-18T12:26:22.582Z,55.30
2018-04-18T12:28:50.186Z,62.23
2018-04-18T12:31:17.791Z,48.83
2018-04-18T12:33:45.370Z,54.93
2018-04-18T12:36:12.922Z,43.63
2018-04-18T12:38:40.514Z,42.80
2018-04-18T12:41:08.133Z,31.93
2018-04-18T12:43:35.763Z,41.13
2018-04-18T12:46:03.406Z,38.87
2018-04-18T12:48:30.954Z,37.27
2018-04-18T12:50:58.562Z,30.87
2018-04-18T12:53:26.336Z,30.07
2018-04-18T12:55:53.995Z,40.20
2018-04-18T12:58:21.567Z,41.47
2018-04-18T13:00:49.205Z,26.67
2018-04-18T13:03:16.815Z,29.67
2018-04-18T13:05:44.384Z,26.80
2018-04-18T13:08:12.084Z,24.60
2018-04-18T13:10:39.746Z,25.10
2018-04-18T13:13:07.282Z,22.70
2018-04-18T13:15:34.951Z,24.60
2018-04-18T13:18:02.626Z,30.03
2018-04-18T13:20:30.198Z,25.40
2018-04-18T13:22:57.834Z,21.33
2018-04-18T13:25:25.435Z,25.83
2018-04-18T13:27:53.930Z,24.30
2018-04-18T13:30:21.543Z,26.33
2018-04-18T13:32:49.087Z,18.80
2018-04-18T13:35:17.619Z,27.13
2018-04-18T13:37:45.231Z,19.57
2018-04-18T13:40:12.812Z,20.50
2018-04-18T13:42:40.480Z,25.03
2018-04-18T13:45:08.040Z,19.83
2018-04-18T13:47:35.669Z,20.10
2018-04-18T13:50:03.271Z,27.27
2018-04-18T13:52:30.873Z,17.17
2018-04-18T13:54:58.496Z,29.17
2018-04-18T13:57:26.089Z,19.67
2018-04-18T13:59:53.642Z,24.20
2018-04-18T14:02:21.190Z,20.07
2018-04-18T14:04:48.834Z,20.87
2018-04-18T14:07:17.287Z,21.63
2018-04-18T14:09:44.929Z,19.13
2018-04-18T14:12:12.535Z,22.53
2018-04-18T14:14:40.118Z,24.77
2018-04-18T14:17:07.666Z,19.67
2018-04-18T14:19:35.285Z,30.30
2018-04-18T14:22:02.830Z,15.53
2018-04-18T14:24:30.378Z,27.97
2018-04-18T14:26:58.034Z,22.30
2018-04-18T14:29:25.994Z,17.60
2018-04-18T14:31:53.621Z,21.53
2018-04-18T14:34:21.254Z,18.83
2018-04-18T14:36:48.862Z,20.13
2018-04-18T14:39:16.471Z,25.30
2018-04-18T14:41:44.121Z,24.27
2018-04-18T14:44:12.302Z,18.37
2018-04-18T14:46:39.926Z,23.47
2018-04-18T14:49:07.537Z,20.57
2018-04-18T14:51:35.251Z,21.70
2018-04-18T14:54:03.601Z,25.70
2018-04-18T14:56:31.303Z,22.27
2018-04-18T14:58:59.196Z,21.87
2018-04-18T15:01:27.215Z,16.97
2018-04-18T15:03:54.878Z,21.93
2018-04-18T15:06:23.011Z,15.57
2018-04-18T15:08:51.563Z,18.10
2018-04-18T15:11:19.215Z,15.73
2018-04-18T15:13:46.762Z,18.37
2018-04-18T15:16:14.373Z,18.80
2018-04-18T15:18:41.978Z,19.63
2018-04-18T15:21:09.586Z,22.07
2018-04-18T15:23:37.242Z,20.27
2018-04-18T15:26:04.926Z,16.67
2018-04-18T15:28:32.518Z,21.57
2018-04-18T15:31:00.130Z,20.27
2018-04-18T15:33:27.814Z,14.07
2018-04-18T15:35:55.446Z,21.10
2018-04-18T15:38:23.002Z,20.40
2018-04-18T15:40:50.792Z,15.97
2018-04-18T15:43:18.338Z,14.53
2018-04-18T15:45:48.766Z,16.03
2018-04-18T15:48:16.386Z,15.57
2018-04-18T15:50:44.814Z,13.30
2018-04-18T15:53:14.219Z,17.73
2018-04-18T15:55:42.649Z,14.30
2018-04-18T15:58:10.311Z,17.27
2018-04-18T16:00:37.855Z,16.03
2018-04-18T16:03:06.565Z,15.70
2018-04-18T16:05:34.129Z,16.80
2018-04-18T16:08:02.682Z,17.83
2018-04-18T16:10:32.015Z,15.23
2018-04-18T16:12:59.581Z,16.67
2018-04-18T16:15:27.135Z,17.20
2018-04-18T16:17:54.730Z,13.90
2018-04-18T16:20:22.373Z,19.00
2018-04-18T16:22:49.995Z,19.13
2018-04-18T16:25:17.618Z,14.50
2018-04-18T16:27:45.263Z,14.17
2018-04-18T16:30:24.534Z,12.47
2018-04-18T16:32:52.214Z,16.67
2018-04-18T16:35:19.769Z,15.33
2018-04-18T16:37:47.378Z,16.83
2018-04-18T16:40:16.749Z,13.97
2018-04-18T16:42:44.310Z,15.33
2018-04-18T16:45:11.870Z,13.77
2018-04-18T16:47:39.603Z,15.00
2018-04-18T16:50:07.154Z,21.60
2018-04-18T16:52:34.754Z,15.90
2018-04-18T16:55:02.359Z,14.60
2018-04-18T16:57:30.054Z,15.43
2018-04-18T16:59:58.834Z,14.23
2018-04-18T17:02:26.440Z,16.10
2018-04-18T17:04:54.098Z,23.27
2018-04-18T17:07:22.782Z,16.93
2018-04-18T17:09:52.157Z,25.80
2018-04-18T17:12:19.742Z,21.97
2018-04-18T17:14:47.891Z,16.80
2018-04-18T17:17:15.539Z,25.30
2018-04-18T17:19:43.122Z,18.03
2018-04-18T17:22:12.600Z,21.67
2018-04-18T17:24:40.189Z,21.70
2018-04-18T17:27:07.851Z,22.47
2018-04-18T17:29:35.426Z,24.73
2018-04-18T17:32:03.460Z,20.83
2018-04-18T17:34:31.938Z,17.90
2018-04-18T17:36:59.590Z,18.30
2018-04-18T17:39:27.202Z,15.60
2018-04-18T17:41:55.158Z,18.17
2018-04-18T17:44:23.477Z,19.37
2018-04-18T17:46:51.142Z,15.23
2018-04-18T17:49:18.710Z,15.40
2018-04-18T17:51:46.380Z,14.00
2018-04-18T17:54:14.983Z,20.93
2018-04-18T17:56:43.702Z,15.93
2018-04-18T17:59:11.355Z,14.27
2018-04-18T18:01:39.254Z,12.77
2018-04-18T18:04:07.713Z,11.97
2018-04-18T18:06:35.286Z,17.70
2018-04-18T18:09:03.938Z,17.43
2018-04-18T18:11:32.104Z,14.17
2018-04-18T18:14:00.472Z,11.97
2018-04-18T18:16:28.087Z,15.53
2018-04-18T18:18:56.703Z,15.70
2018-04-18T18:21:25.294Z,16.40
2018-04-18T18:23:53.218Z,17.83
2018-04-18T18:26:20.875Z,14.90
2018-04-18T18:28:49.522Z,13.60
2018-04-18T18:31:18.106Z,14.80
2018-04-18T18:33:45.715Z,20.13
2018-04-18T18:36:13.346Z,11.47
2018-04-18T18:38:41.074Z,13.50
2018-04-18T18:41:08.658Z,11.30
2018-04-18T18:43:37.237Z,13.93
2018-04-18T18:46:05.210Z,13.30
2018-04-18T18:48:33.757Z,15.07
2018-04-18T18:51:01.419Z,11.93
2018-04-18T18:53:29.050Z,16.17
2018-04-18T18:55:56.594Z,11.53
2018-04-18T18:58:24.222Z,15.20
2018-04-18T19:00:51.777Z,16.20
2018-04-18T19:03:19.381Z,12.47
2018-04-18T19:05:46.993Z,13.17
2018-04-18T19:08:15.048Z,10.90
2018-04-18T19:10:42.589Z,14.37
2018-04-18T19:13:10.138Z,13.37
2018-04-18T19:15:38.587Z,16.03
2018-04-18T19:18:06.672Z,17.80
2018-04-18T19:20:36.175Z,13.13
2018-04-18T19:23:04.192Z,15.97
2018-04-18T19:25:33.125Z,17.53
2018-04-18T19:28:01.895Z,14.67
2018-04-18T19:30:29.953Z,15.93
2018-04-18T19:32:58.710Z,15.10
2018-04-18T19:35:28.002Z,15.90
2018-04-18T19:37:56.567Z,16.30
2018-04-18T19:40:24.466Z,20.87
2018-04-18T19:42:52.043Z,13.50
2018-04-18T19:45:19.649Z,17.10
2018-04-18T19:47:47.531Z,13.63
2018-04-18T19:50:15.789Z,14.97
2018-04-18T19:52:43.338Z,14.07
2018-04-18T19:55:10.930Z,12.60
2018-04-18T19:57:39.482Z,14.53
2018-04-18T20:00:07.267Z,12.93
2018-04-18T20:02:34.819Z,16.13
2018-04-18T20:05:03.027Z,12.80
2018-04-18T20:07:32.359Z,14.97
2018-04-18T20:09:59.914Z,14.50
2018-04-18T20:12:27.462Z,10.23
2018-04-18T20:14:55.318Z,11.93
2018-04-18T20:17:23.997Z,13.67
2018-04-18T20:19:52.670Z,12.43
2018-04-18T20:22:20.383Z,15.03
2018-04-18T20:24:48.535Z,13.63
2018-04-18T20:27:16.639Z,13.00
2018-04-18T20:29:45.289Z,9.63
2018-04-18T20:32:13.698Z,15.30
2018-04-18T20:34:42.678Z,13.10
2018-04-18T20:37:11.234Z,17.20
2018-04-18T20:39:38.778Z,9.90
2018-04-18T20:42:06.322Z,12.53
2018-04-18T20:44:34.116Z,8.47
2018-04-18T20:47:01.659Z,9.27
2018-04-18T20:49:31.237Z,11.03
2018-04-18T20:51:58.925Z,11.67
2018-04-18T20:54:27.639Z,14.57
2018-04-18T20:56:57.198Z,9.97
2018-04-18T20:59:25.589Z,14.20
2018-04-18T21:01:53.918Z,9.30
2018-04-18T21:04:21.458Z,8.83
2018-04-18T21:06:49.791Z,13.73
2018-04-18T21:09:17.335Z,8.80
2018-04-18T21:11:45.506Z,11.17
2018-04-18T21:14:13.126Z,11.13
2018-04-18T21:16:40.716Z,10.60
2018-04-18T21:19:08.273Z,13.03
2018-04-18T21:21:36.880Z,15.53
2018-04-18T21:24:05.067Z,16.20
2018-04-18T21:26:32.936Z,11.80
2018-04-18T21:29:02.431Z,13.27
2018-04-18T21:31:29.982Z,12.03
2018-04-18T21:33:57.544Z,12.47
2018-04-18T21:36:25.139Z,14.40
2018-04-18T21:38:52.691Z,14.37
2018-04-18T21:41:20.322Z,13.67
2018-04-18T21:43:47.878Z,11.03
2018-04-18T21:46:15.421Z,14.23
2018-04-18T21:48:43.017Z,12.70
2018-04-18T21:51:11.501Z,13.60
2018-04-18T21:53:39.094Z,13.07
2018-04-18T21:56:06.647Z,11.07
2018-04-18T21:58:34.531Z,17.73
2018-04-18T22:01:02.076Z,13.93
2018-04-18T22:03:29.670Z,12.07
2018-04-18T22:05:57.219Z,13.27
2018-04-18T22:08:24.807Z,12.00
2018-04-18T22:10:52.389Z,14.37
2018-04-18T22:13:19.931Z,10.10
2018-04-18T22:15:47.807Z,15.37
2018-04-18T22:18:15.570Z,13.53
2018-04-18T22:20:43.327Z,15.93
2018-04-18T22:23:10.914Z,13.23
2018-04-18T22:25:39.171Z,11.83
2018-04-18T22:28:06.770Z,15.70
2018-04-18T22:30:34.852Z,10.93
2018-04-18T22:33:03.784Z,11.53
2018-04-18T22:35:31.477Z,13.77
2018-04-18T22:37:59.226Z,13.33
2018-04-18T22:40:26.767Z,15.03
2018-04-18T22:42:54.378Z,13.67
2018-04-18T22:45:21.922Z,14.83
2018-04-18T22:47:50.422Z,12.53
2018-04-18T22:50:18.064Z,17.00
2018-04-18T22:52:45.610Z,20.03
2018-04-18T22:55:13.445Z,17.83
2018-04-18T22:57:41.049Z,13.53
2018-04-18T23:00:08.694Z,15.83
2018-04-18T23:02:36.291Z,13.13
2018-04-18T23:05:04.114Z,13.43
2018-04-18T23:07:31.665Z,12.80
2018-04-18T23:10:00.651Z,15.57
2018-04-18T23:12:28.195Z,18.17
2018-04-18T23:14:55.801Z,14.87
2018-04-18T23:17:23.353Z,16.57
2018-04-18T23:19:51.091Z,17.13
2018-04-18T23:22:30.420Z,26.07
2018-04-18T23:24:58.006Z,18.57
2018-04-18T23:27:25.561Z,27.23
2018-04-18T23:29:53.150Z,18.17
2018-04-18T23:32:20.697Z,19.80
2018-04-18T23:34:49.665Z,23.43
2018-04-18T23:37:17.261Z,21.43
2018-04-18T23:39:45.210Z,20.67
2018-04-18T23:42:13.387Z,24.40
2018-04-18T23:44:41.282Z,21.23
2018-04-18T23:47:09.698Z,23.83
2018-04-18T23:49:37.318Z,24.20
2018-04-18T23:52:05.067Z,26.30
2018-04-18T23:54:32.616Z,21.50
2018-04-18T23:57:00.867Z,22.00
2018-04-18T23:59:28.657Z,23.27
